createdAt,value
2019-01-18T00:00:30.540Z,18.70
2019-01-18T00:01:30.469Z,18.00
2019-01-18T00:02:30.495Z,20.30
2019-01-18T00:03:30.484Z,18.80
2019-01-18T00:04:30.713Z,21.00
2019-01-18T00:05:30.421Z,18.00
2019-01-18T00:06:30.411Z,19.90
2019-01-18T00:07:30.416Z,19.10
2019-01-18T00:08:30.455Z,19.20
2019-01-18T00:09:30.392Z,19.40
2019-01-18T00:10:30.372Z,20.90
2019-01-18T00:11:30.352Z,21.00
2019-01-18T00:12:30.382Z,20.10
2019-01-18T00:13:30.362Z,21.10
2019-01-18T00:14:30.327Z,20.80
2019-01-18T00:15:30.314Z,18.70
2019-01-18T00:16:30.309Z,18.90
2019-01-18T00:17:30.290Z,18.50
2019-01-18T00:18:30.329Z,20.40
2019-01-18T00:19:30.265Z,21.10
2019-01-18T00:20:30.253Z,19.40
2019-01-18T00:21:30.284Z,18.40
2019-01-18T00:22:30.236Z,19.80
2019-01-18T00:23:30.220Z,20.90
2019-01-18T00:24:30.237Z,18.50
2019-01-18T00:25:30.203Z,20.10
2019-01-18T00:26:30.194Z,16.70
2019-01-18T00:27:30.192Z,16.50
2019-01-18T00:28:30.165Z,18.90
2019-01-18T00:29:30.196Z,18.10
2019-01-18T00:30:30.169Z,18.20
2019-01-18T00:31:30.133Z,17.80
2019-01-18T00:32:30.124Z,18.10
2019-01-18T00:33:30.145Z,18.70
2019-01-18T00:34:30.107Z,18.70
2019-01-18T00:35:30.114Z,19.10
2019-01-18T00:36:30.103Z,19.40
2019-01-18T00:37:30.066Z,18.30
2019-01-18T00:38:30.059Z,16.60
2019-01-18T00:39:30.047Z,19.10
2019-01-18T00:40:30.035Z,18.80
2019-01-18T00:41:30.043Z,16.80
2019-01-18T00:42:30.054Z,17.70
2019-01-18T00:43:30.001Z,18.10
2019-01-18T00:44:29.987Z,17.80
2019-01-18T00:45:29.990Z,19.40
2019-01-18T00:46:29.975Z,16.50
2019-01-18T00:47:29.977Z,17.00
2019-01-18T00:48:29.944Z,18.00
2019-01-18T00:49:29.932Z,18.10
2019-01-18T00:50:29.953Z,18.90
2019-01-18T00:51:29.921Z,17.90
2019-01-18T00:52:29.907Z,20.00
2019-01-18T00:53:29.891Z,19.30
2019-01-18T00:54:29.876Z,19.40
2019-01-18T00:55:29.890Z,21.80
2019-01-18T00:56:29.859Z,21.90
2019-01-18T00:57:29.845Z,22.80
2019-01-18T00:58:29.835Z,22.30
2019-01-18T00:59:36.165Z,19.30
2019-01-18T01:00:30.809Z,19.40
2019-01-18T01:01:29.798Z,18.50
2019-01-18T01:02:29.794Z,21.10
2019-01-18T01:03:29.801Z,18.90
2019-01-18T01:04:29.771Z,16.40
2019-01-18T01:05:29.756Z,16.40
2019-01-18T01:06:29.749Z,17.30
2019-01-18T01:07:29.779Z,18.10
2019-01-18T01:08:29.722Z,17.00
2019-01-18T01:09:29.739Z,19.50
2019-01-18T01:10:29.707Z,18.00
2019-01-18T01:11:29.689Z,17.40
2019-01-18T01:12:29.701Z,16.30
2019-01-18T01:13:29.670Z,17.30
2019-01-18T01:14:29.658Z,17.20
2019-01-18T01:15:29.642Z,17.10
2019-01-18T01:16:29.636Z,17.90
2019-01-18T01:17:29.653Z,17.20
2019-01-18T01:18:29.613Z,15.20
2019-01-18T01:19:29.600Z,18.50
2019-01-18T01:20:29.586Z,16.80
2019-01-18T01:21:29.579Z,18.40
2019-01-18T01:22:29.597Z,17.00
2019-01-18T01:23:29.555Z,16.70
2019-01-18T01:24:29.573Z,17.30
2019-01-18T01:25:29.531Z,17.70
2019-01-18T01:26:29.524Z,16.70
2019-01-18T01:27:29.516Z,16.50
2019-01-18T01:28:29.500Z,17.10
2019-01-18T01:29:29.529Z,17.70
2019-01-18T01:30:29.474Z,17.80
2019-01-18T01:31:29.466Z,18.70
2019-01-18T01:32:29.461Z,17.90
2019-01-18T01:33:29.444Z,17.20
2019-01-18T01:34:29.477Z,17.30
2019-01-18T01:35:29.447Z,17.00
2019-01-18T01:36:29.408Z,16.80
2019-01-18T01:37:29.397Z,19.30
2019-01-18T01:38:29.427Z,15.90
2019-01-18T01:39:29.379Z,16.80
2019-01-18T01:40:29.365Z,16.50
2019-01-18T01:41:29.405Z,17.70
2019-01-18T01:42:29.341Z,16.80
2019-01-18T01:43:29.357Z,18.90
2019-01-18T01:44:29.317Z,17.60
2019-01-18T01:45:29.338Z,18.30
2019-01-18T01:46:29.304Z,17.20
2019-01-18T01:47:29.288Z,17.20
2019-01-18T01:48:29.273Z,17.30
2019-01-18T01:49:29.308Z,17.90
2019-01-18T01:50:29.253Z,17.30
2019-01-18T01:51:29.244Z,18.60
2019-01-18T01:52:29.235Z,16.40
2019-01-18T01:53:29.218Z,17.40
2019-01-18T01:54:29.233Z,16.20
2019-01-18T01:55:29.242Z,18.40
2019-01-18T01:56:29.183Z,16.80
2019-01-18T01:57:29.173Z,15.00
2019-01-18T01:58:29.164Z,16.30
2019-01-18T01:59:29.166Z,15.80
2019-01-18T02:00:29.186Z,17.00
2019-01-18T02:01:29.135Z,16.20
2019-01-18T02:02:29.124Z,15.30
2019-01-18T02:03:29.108Z,17.20
2019-01-18T02:04:29.099Z,17.20
2019-01-18T02:05:29.111Z,17.40
2019-01-18T02:06:29.082Z,16.20
2019-01-18T02:07:29.060Z,16.30
2019-01-18T02:08:29.051Z,16.80
2019-01-18T02:09:29.062Z,17.60
2019-01-18T02:10:29.058Z,17.90
2019-01-18T02:11:29.036Z,17.60
2019-01-18T02:12:29.030Z,17.20
2019-01-18T02:13:28.994Z,18.10
2019-01-18T02:14:29.004Z,17.50
2019-01-18T02:15:29.000Z,18.10
2019-01-18T02:16:28.967Z,19.30
2019-01-18T02:17:28.983Z,17.60
2019-01-18T02:18:28.939Z,17.50
2019-01-18T02:19:28.930Z,19.40
2019-01-18T02:20:28.967Z,19.30
2019-01-18T02:21:28.911Z,17.70
2019-01-18T02:22:28.899Z,18.40
2019-01-18T02:23:28.887Z,18.60
2019-01-18T02:24:28.872Z,19.20
2019-01-18T02:25:28.905Z,18.30
2019-01-18T02:26:28.888Z,19.10
2019-01-18T02:27:28.844Z,21.20
2019-01-18T02:28:28.832Z,18.30
2019-01-18T02:29:28.833Z,18.30
2019-01-18T02:30:28.812Z,19.00
2019-01-18T02:31:28.822Z,18.10
2019-01-18T02:32:28.789Z,18.40
2019-01-18T02:33:28.772Z,18.60
2019-01-18T02:34:28.789Z,18.30
2019-01-18T02:35:28.756Z,18.50
2019-01-18T02:36:28.778Z,18.70
2019-01-18T02:37:28.750Z,19.10
2019-01-18T02:38:28.718Z,18.50
2019-01-18T02:39:28.734Z,19.80
2019-01-18T02:40:28.697Z,20.70
2019-01-18T02:41:28.691Z,20.20
2019-01-18T02:42:28.680Z,21.10
2019-01-18T02:43:28.690Z,17.60
2019-01-18T02:44:28.649Z,18.90
2019-01-18T02:45:28.640Z,16.80
2019-01-18T02:46:28.628Z,17.80
2019-01-18T02:47:28.618Z,16.90
2019-01-18T02:48:28.666Z,17.40
2019-01-18T02:49:28.599Z,18.10
2019-01-18T02:50:28.586Z,18.60
2019-01-18T02:51:28.580Z,18.20
2019-01-18T02:52:28.561Z,18.60
2019-01-18T02:53:28.580Z,17.80
2019-01-18T02:54:28.539Z,15.40
2019-01-18T02:55:29.164Z,15.40
2019-01-18T02:56:28.548Z,14.50
2019-01-18T02:57:28.532Z,16.00
2019-01-18T02:58:28.493Z,16.30
2019-01-18T02:59:28.486Z,16.40
2019-01-18T03:00:28.481Z,16.80
2019-01-18T03:01:28.488Z,16.60
2019-01-18T03:02:28.453Z,18.20
2019-01-18T03:03:28.466Z,16.80
2019-01-18T03:04:28.429Z,18.50
2019-01-18T03:05:28.425Z,17.60
2019-01-18T03:06:28.407Z,16.60
2019-01-18T03:07:28.395Z,16.70
2019-01-18T03:08:28.413Z,17.50
2019-01-18T03:09:28.376Z,17.90
2019-01-18T03:10:28.387Z,18.80
2019-01-18T03:11:28.370Z,19.00
2019-01-18T03:12:28.343Z,18.00
2019-01-18T03:13:28.351Z,19.60
2019-01-18T03:14:28.349Z,18.00
2019-01-18T03:15:28.332Z,19.90
2019-01-18T03:16:28.300Z,18.60
2019-01-18T03:17:28.287Z,18.60
2019-01-18T03:18:28.311Z,19.60
2019-01-18T03:19:28.262Z,19.70
2019-01-18T03:20:28.267Z,20.80
2019-01-18T03:21:28.268Z,19.50
2019-01-18T03:22:28.229Z,21.30
2019-01-18T03:23:28.242Z,21.40
2019-01-18T03:24:28.217Z,21.00
2019-01-18T03:25:28.212Z,21.90
2019-01-18T03:26:28.211Z,20.00
2019-01-18T03:27:28.176Z,20.80
2019-01-18T03:28:28.166Z,21.70
2019-01-18T03:29:28.193Z,23.10
2019-01-18T03:30:28.138Z,23.60
2019-01-18T03:31:28.129Z,22.00
2019-01-18T03:32:28.126Z,24.00
2019-01-18T03:33:28.107Z,23.40
2019-01-18T03:34:28.138Z,22.80
2019-01-18T03:35:28.089Z,24.60
2019-01-18T03:36:28.075Z,22.70
2019-01-18T03:37:28.060Z,23.80
2019-01-18T03:38:28.053Z,23.10
2019-01-18T03:39:28.074Z,23.20
2019-01-18T03:40:28.032Z,24.90
2019-01-18T03:41:28.020Z,23.60
2019-01-18T03:42:28.004Z,24.80
2019-01-18T03:43:28.006Z,22.60
2019-01-18T03:44:28.001Z,24.10
2019-01-18T03:45:28.005Z,23.90
2019-01-18T03:46:27.960Z,26.00
2019-01-18T03:47:27.984Z,25.30
2019-01-18T03:48:27.943Z,25.90
2019-01-18T03:49:27.926Z,25.00
2019-01-18T03:50:27.929Z,26.90
2019-01-18T03:51:27.905Z,25.30
2019-01-18T03:52:27.928Z,25.30
2019-01-18T03:53:27.909Z,25.90
2019-01-18T03:54:27.876Z,27.40
2019-01-18T03:55:27.860Z,28.40
2019-01-18T03:56:27.850Z,26.70
2019-01-18T03:57:27.879Z,28.30
2019-01-18T03:58:27.828Z,26.90
2019-01-18T03:59:27.825Z,28.60
2019-01-18T04:00:27.808Z,28.70
2019-01-18T04:01:27.835Z,26.90
2019-01-18T04:02:27.797Z,27.70
2019-01-18T04:03:27.771Z,28.70
2019-01-18T04:04:27.931Z,26.50
2019-01-18T04:05:27.754Z,27.70
2019-01-18T04:06:27.795Z,26.50
2019-01-18T04:07:27.727Z,27.90
2019-01-18T04:08:27.725Z,28.00
2019-01-18T04:09:27.704Z,25.50
2019-01-18T04:10:27.721Z,27.50
2019-01-18T04:11:27.712Z,27.30
2019-01-18T04:12:27.675Z,26.80
2019-01-18T04:13:27.665Z,26.50
2019-01-18T04:14:27.651Z,25.10
2019-01-18T04:15:27.637Z,25.90
2019-01-18T04:16:27.653Z,26.90
2019-01-18T04:17:27.632Z,27.40
2019-01-18T04:18:27.608Z,27.20
2019-01-18T04:19:27.636Z,26.10
2019-01-18T04:20:27.583Z,27.00
2019-01-18T04:21:27.763Z,27.80
2019-01-18T04:22:27.563Z,26.80
2019-01-18T04:23:27.551Z,25.30
2019-01-18T04:24:27.575Z,23.80
2019-01-18T04:25:27.534Z,26.10
2019-01-18T04:26:27.532Z,26.30
2019-01-18T04:27:27.509Z,25.10
2019-01-18T04:28:27.492Z,27.90
2019-01-18T04:29:27.522Z,26.70
2019-01-18T04:30:33.330Z,26.80
2019-01-18T04:31:28.456Z,25.70
2019-01-18T04:32:27.451Z,28.20
2019-01-18T04:33:27.443Z,26.60
2019-01-18T04:34:27.461Z,25.70
2019-01-18T04:35:27.443Z,25.20
2019-01-18T04:36:27.405Z,26.20
2019-01-18T04:37:27.394Z,26.10
2019-01-18T04:38:27.423Z,26.50
2019-01-18T04:39:27.399Z,25.50
2019-01-18T04:40:27.364Z,26.70
2019-01-18T04:41:27.347Z,25.40
2019-01-18T04:42:27.338Z,25.80
2019-01-18T04:43:27.359Z,26.20
2019-01-18T04:44:27.313Z,28.00
2019-01-18T04:45:27.310Z,26.90
2019-01-18T04:46:27.293Z,27.50
2019-01-18T04:47:27.316Z,30.00
2019-01-18T04:48:27.304Z,30.60
2019-01-18T04:49:27.264Z,29.90
2019-01-18T04:50:27.247Z,29.70
2019-01-18T04:51:27.237Z,27.90
2019-01-18T04:52:28.118Z,28.60
2019-01-18T04:53:27.247Z,31.70
2019-01-18T04:54:27.202Z,29.60
2019-01-18T04:55:27.200Z,30.10
2019-01-18T04:56:27.186Z,31.80
2019-01-18T04:57:27.196Z,30.30
2019-01-18T04:58:27.169Z,28.30
2019-01-18T04:59:27.149Z,30.50
2019-01-18T05:00:27.137Z,29.20
2019-01-18T05:01:27.149Z,29.90
2019-01-18T05:02:27.162Z,27.60
2019-01-18T05:03:27.107Z,30.60
2019-01-18T05:04:27.092Z,30.30
2019-01-18T05:05:27.090Z,30.90
2019-01-18T05:06:27.074Z,28.80
2019-01-18T05:07:27.093Z,30.60
2019-01-18T05:08:27.049Z,32.80
2019-01-18T05:09:27.059Z,31.70
2019-01-18T05:10:27.035Z,31.60
2019-01-18T05:11:27.016Z,32.20
2019-01-18T05:12:27.035Z,33.00
2019-01-18T05:13:27.002Z,31.80
2019-01-18T05:14:26.983Z,30.80
2019-01-18T05:15:26.972Z,33.20
2019-01-18T05:16:27.010Z,32.30
2019-01-18T05:17:26.951Z,32.30
2019-01-18T05:18:26.940Z,31.70
2019-01-18T05:19:26.924Z,31.50
2019-01-18T05:20:26.940Z,33.60
2019-01-18T05:21:26.918Z,33.10
2019-01-18T05:22:26.917Z,33.70
2019-01-18T05:23:26.885Z,31.40
2019-01-18T05:24:26.877Z,32.20
2019-01-18T05:25:26.890Z,33.40
2019-01-18T05:26:26.848Z,32.40
2019-01-18T05:27:26.838Z,33.40
2019-01-18T05:28:26.824Z,32.70
2019-01-18T05:29:26.833Z,32.40
2019-01-18T05:30:26.832Z,32.00
2019-01-18T05:31:26.796Z,33.10
2019-01-18T05:32:26.780Z,35.60
2019-01-18T05:33:26.812Z,34.40
2019-01-18T05:34:26.760Z,33.50
2019-01-18T05:35:26.746Z,33.70
2019-01-18T05:36:26.740Z,36.20
2019-01-18T05:37:26.735Z,35.90
2019-01-18T05:38:26.750Z,36.10
2019-01-18T05:39:26.710Z,35.50
2019-01-18T05:40:26.695Z,35.50
2019-01-18T05:41:26.681Z,35.10
2019-01-18T05:42:26.688Z,35.50
2019-01-18T05:43:26.696Z,35.00
2019-01-18T05:44:26.655Z,35.00
2019-01-18T05:45:26.649Z,37.30
2019-01-18T05:46:26.624Z,36.00
2019-01-18T05:47:26.613Z,39.20
2019-01-18T05:48:26.652Z,36.20
2019-01-18T05:49:26.590Z,34.90
2019-01-18T05:50:26.583Z,37.50
2019-01-18T05:51:26.598Z,36.70
2019-01-18T05:52:26.557Z,37.00
2019-01-18T05:53:26.548Z,37.00
2019-01-18T05:54:26.539Z,36.40
2019-01-18T05:55:26.537Z,37.30
2019-01-18T05:56:26.536Z,37.40
2019-01-18T05:57:26.504Z,39.20
2019-01-18T05:58:26.508Z,37.70
2019-01-18T05:59:26.483Z,37.70
2019-01-18T06:00:26.475Z,37.90
2019-01-18T06:01:26.734Z,37.10
2019-01-18T06:02:26.453Z,42.00
2019-01-18T06:03:26.435Z,40.70
2019-01-18T06:04:26.438Z,38.60
2019-01-18T06:05:26.421Z,37.80
2019-01-18T06:06:26.430Z,36.30
2019-01-18T06:07:26.395Z,40.00
2019-01-18T06:08:26.385Z,41.10
2019-01-18T06:09:26.373Z,40.80
2019-01-18T06:10:26.360Z,38.40
2019-01-18T06:11:26.377Z,37.90
2019-01-18T06:12:26.338Z,40.90
2019-01-18T06:13:26.333Z,37.90
2019-01-18T06:14:26.336Z,37.40
2019-01-18T06:15:26.305Z,38.60
2019-01-18T06:16:26.319Z,38.00
2019-01-18T06:17:26.330Z,39.40
2019-01-18T06:18:26.274Z,38.10
2019-01-18T06:19:26.261Z,39.70
2019-01-18T06:20:26.255Z,37.40
2019-01-18T06:21:26.240Z,40.10
2019-01-18T06:22:26.254Z,39.10
2019-01-18T06:23:26.219Z,38.90
2019-01-18T06:24:26.202Z,37.80
2019-01-18T06:25:26.195Z,37.20
2019-01-18T06:26:26.178Z,39.40
2019-01-18T06:27:26.208Z,35.80
2019-01-18T06:28:26.166Z,37.10
2019-01-18T06:29:26.146Z,38.80
2019-01-18T06:30:26.138Z,38.20
2019-01-18T06:31:26.150Z,36.70
2019-01-18T06:32:26.145Z,38.80
2019-01-18T06:33:26.122Z,37.50
2019-01-18T06:34:26.092Z,37.40
2019-01-18T06:35:26.091Z,38.70
2019-01-18T06:36:26.072Z,38.30
2019-01-18T06:37:26.064Z,39.50
2019-01-18T06:38:26.076Z,35.20
2019-01-18T06:39:26.041Z,35.60
2019-01-18T06:40:26.027Z,37.70
2019-01-18T06:41:26.011Z,38.20
2019-01-18T06:42:26.027Z,38.70
2019-01-18T06:43:25.995Z,35.50
2019-01-18T06:44:25.993Z,36.90
2019-01-18T06:45:25.969Z,36.50
2019-01-18T06:46:25.957Z,36.60
2019-01-18T06:47:25.975Z,37.80
2019-01-18T06:48:25.941Z,37.60
2019-01-18T06:49:25.923Z,38.10
2019-01-18T06:50:25.911Z,38.30
2019-01-18T06:51:25.928Z,38.10
2019-01-18T06:52:25.886Z,38.90
2019-01-18T06:53:25.903Z,40.80
2019-01-18T06:54:25.878Z,36.40
2019-01-18T06:55:25.858Z,37.10
2019-01-18T06:56:25.850Z,37.00
2019-01-18T06:57:25.857Z,39.40
2019-01-18T06:58:25.820Z,38.50
2019-01-18T06:59:25.843Z,37.10
2019-01-18T07:00:25.800Z,40.70
2019-01-18T07:01:25.806Z,39.20
2019-01-18T07:02:25.786Z,39.00
2019-01-18T07:03:25.765Z,40.10
2019-01-18T07:04:25.783Z,35.50
2019-01-18T07:05:25.741Z,36.10
2019-01-18T07:06:25.783Z,39.30
2019-01-18T07:07:25.785Z,39.00
2019-01-18T07:08:25.746Z,36.80
2019-01-18T07:09:25.743Z,38.40
2019-01-18T07:10:25.740Z,38.30
2019-01-18T07:11:25.752Z,38.00
2019-01-18T07:12:25.715Z,37.70
2019-01-18T07:13:25.759Z,36.60
2019-01-18T07:14:25.738Z,38.00
2019-01-18T07:15:25.697Z,36.00
2019-01-18T07:16:25.663Z,38.90
2019-01-18T07:17:25.674Z,38.50
2019-01-18T07:18:25.629Z,37.40
2019-01-18T07:19:25.666Z,38.60
2019-01-18T07:20:25.675Z,38.90
2019-01-18T07:21:25.592Z,40.10
2019-01-18T07:22:25.615Z,39.70
2019-01-18T07:23:25.750Z,40.80
2019-01-18T07:24:25.607Z,41.50
2019-01-18T07:25:25.605Z,41.00
2019-01-18T07:26:25.563Z,40.00
2019-01-18T07:27:25.588Z,40.40
2019-01-18T07:28:25.521Z,43.00
2019-01-18T07:29:25.473Z,42.20
2019-01-18T07:30:25.462Z,44.40
2019-01-18T07:31:25.453Z,41.80
2019-01-18T07:32:25.464Z,42.90
2019-01-18T07:33:25.433Z,41.10
2019-01-18T07:34:25.415Z,41.10
2019-01-18T07:35:25.433Z,41.70
2019-01-18T07:36:25.390Z,41.30
2019-01-18T07:37:25.382Z,43.20
2019-01-18T07:38:25.378Z,43.20
2019-01-18T07:39:25.365Z,46.20
2019-01-18T07:40:26.182Z,45.80
2019-01-18T07:41:25.342Z,42.80
2019-01-18T07:42:25.324Z,42.60
2019-01-18T07:43:25.314Z,45.10
2019-01-18T07:44:25.315Z,44.80
2019-01-18T07:45:25.326Z,45.50
2019-01-18T07:46:25.279Z,43.30
2019-01-18T07:47:25.298Z,46.70
2019-01-18T07:48:25.261Z,46.40
2019-01-18T07:49:25.245Z,44.90
2019-01-18T07:50:25.287Z,45.80
2019-01-18T07:51:25.243Z,44.80
2019-01-18T07:52:25.309Z,45.20
2019-01-18T07:53:25.203Z,46.00
2019-01-18T07:54:25.196Z,46.00
2019-01-18T07:55:25.182Z,46.30
2019-01-18T07:56:25.166Z,45.00
2019-01-18T07:57:25.193Z,45.60
2019-01-18T07:58:25.168Z,45.50
2019-01-18T07:59:25.135Z,45.20
2019-01-18T08:00:25.123Z,45.20
2019-01-18T08:01:25.136Z,44.40
2019-01-18T08:02:25.123Z,45.10
2019-01-18T08:03:25.093Z,47.80
2019-01-18T08:04:25.082Z,47.30
2019-01-18T08:05:25.090Z,46.90
2019-01-18T08:06:25.053Z,46.30
2019-01-18T08:07:25.064Z,49.40
2019-01-18T08:08:25.034Z,46.60
2019-01-18T08:09:25.030Z,46.60
2019-01-18T08:10:25.028Z,47.80
2019-01-18T08:11:25.046Z,48.80
2019-01-18T08:12:24.985Z,47.80
2019-01-18T08:13:25.031Z,47.60
2019-01-18T08:14:24.967Z,44.50
2019-01-18T08:15:24.985Z,45.10
2019-01-18T08:16:24.945Z,44.70
2019-01-18T08:17:24.936Z,44.20
2019-01-18T08:18:24.918Z,44.10
2019-01-18T08:19:24.910Z,45.10
2019-01-18T08:20:24.945Z,44.40
2019-01-18T08:21:24.889Z,43.50
2019-01-18T08:22:24.898Z,43.60
2019-01-18T08:23:24.922Z,42.40
2019-01-18T08:24:24.853Z,44.30
2019-01-18T08:25:24.874Z,44.50
2019-01-18T08:26:24.850Z,43.60
2019-01-18T08:27:24.820Z,42.90
2019-01-18T08:28:24.842Z,42.90
2019-01-18T08:29:24.794Z,42.40
2019-01-18T08:30:24.816Z,43.70
2019-01-18T08:31:28.821Z,42.90
2019-01-18T08:32:24.763Z,43.60
2019-01-18T08:33:24.752Z,46.70
2019-01-18T08:34:24.754Z,49.90
2019-01-18T08:35:24.734Z,49.90
2019-01-18T08:36:24.743Z,45.00
2019-01-18T08:37:24.707Z,46.00
2019-01-18T08:38:24.692Z,45.20
2019-01-18T08:39:24.690Z,47.90
2019-01-18T08:40:24.701Z,47.50
2019-01-18T08:41:24.663Z,46.40
2019-01-18T08:42:24.663Z,47.20
2019-01-18T08:43:24.647Z,51.10
2019-01-18T08:44:24.656Z,48.40
2019-01-18T08:45:24.618Z,51.00
2019-01-18T08:46:24.616Z,49.30
2019-01-18T08:47:24.592Z,50.00
2019-01-18T08:48:24.583Z,50.70
2019-01-18T08:49:24.934Z,50.30
2019-01-18T08:50:24.583Z,50.70
2019-01-18T08:51:24.554Z,50.10
2019-01-18T08:52:24.547Z,50.90
2019-01-18T08:53:24.568Z,52.90
2019-01-18T08:54:24.518Z,48.40
2019-01-18T08:55:24.510Z,50.90
2019-01-18T08:56:24.498Z,55.90
2019-01-18T08:57:24.590Z,47.90
2019-01-18T08:58:24.503Z,47.60
2019-01-18T08:59:24.505Z,47.80
2019-01-18T09:00:24.588Z,47.90
2019-01-18T09:01:24.441Z,47.10
2019-01-18T09:02:24.434Z,47.90
2019-01-18T09:03:24.454Z,48.30
2019-01-18T09:04:24.407Z,48.50
2019-01-18T09:05:24.393Z,49.00
2019-01-18T09:06:24.385Z,47.70
2019-01-18T09:07:24.376Z,46.20
2019-01-18T09:08:24.395Z,48.70
2019-01-18T09:09:24.348Z,50.10
2019-01-18T09:10:24.340Z,50.30
2019-01-18T09:11:24.332Z,51.00
2019-01-18T09:12:24.312Z,49.80
2019-01-18T09:13:24.332Z,50.60
2019-01-18T09:14:24.325Z,45.70
2019-01-18T09:15:24.285Z,49.70
2019-01-18T09:16:24.277Z,49.00
2019-01-18T09:17:24.278Z,43.70
2019-01-18T09:18:24.316Z,48.90
2019-01-18T09:19:24.253Z,45.60
2019-01-18T09:20:24.225Z,43.80
2019-01-18T09:21:24.219Z,41.00
2019-01-18T09:22:24.204Z,40.70
2019-01-18T09:23:24.222Z,44.40
2019-01-18T09:24:24.179Z,42.60
2019-01-18T09:25:24.184Z,42.50
2019-01-18T09:26:24.165Z,44.20
2019-01-18T09:27:24.150Z,44.10
2019-01-18T09:28:24.168Z,44.20
2019-01-18T09:29:24.128Z,42.40
2019-01-18T09:30:24.120Z,40.00
2019-01-18T09:31:24.111Z,40.70
2019-01-18T09:32:24.129Z,43.30
2019-01-18T09:33:24.407Z,43.10
2019-01-18T09:34:24.068Z,40.50
2019-01-18T09:35:24.058Z,41.60
2019-01-18T09:36:24.065Z,41.20
2019-01-18T09:37:24.066Z,41.80
2019-01-18T09:38:24.074Z,41.50
2019-01-18T09:39:24.019Z,41.50
2019-01-18T09:40:24.046Z,39.80
2019-01-18T09:41:23.999Z,40.10
2019-01-18T09:42:23.986Z,38.90
2019-01-18T09:43:23.996Z,40.60
2019-01-18T09:44:23.957Z,38.80
2019-01-18T09:45:23.950Z,38.70
2019-01-18T09:46:23.952Z,38.80
2019-01-18T09:47:23.922Z,40.80
2019-01-18T09:48:23.938Z,40.90
2019-01-18T09:49:23.905Z,39.60
2019-01-18T09:50:23.891Z,39.00
2019-01-18T09:51:23.918Z,40.50
2019-01-18T09:52:23.875Z,42.40
2019-01-18T09:53:23.880Z,40.00
2019-01-18T09:54:23.846Z,40.70
2019-01-18T09:55:23.850Z,39.60
2019-01-18T09:56:23.850Z,42.20
2019-01-18T09:57:23.815Z,41.50
2019-01-18T09:58:23.810Z,38.10
2019-01-18T09:59:23.820Z,42.00
2019-01-18T10:00:23.779Z,39.90
2019-01-18T10:01:23.771Z,40.90
2019-01-18T10:02:23.755Z,43.10
2019-01-18T10:03:23.747Z,43.20
2019-01-18T10:04:23.763Z,40.40
2019-01-18T10:05:23.732Z,41.50
2019-01-18T10:06:23.712Z,42.10
2019-01-18T10:07:23.712Z,41.30
2019-01-18T10:08:23.718Z,39.60
2019-01-18T10:09:23.683Z,39.90
2019-01-18T10:10:23.696Z,38.00
2019-01-18T10:11:23.657Z,39.40
2019-01-18T10:12:23.681Z,37.60
2019-01-18T10:13:23.637Z,38.00
2019-01-18T10:14:23.651Z,37.00
2019-01-18T10:15:23.613Z,37.20
2019-01-18T10:16:23.603Z,39.70
2019-01-18T10:17:23.602Z,37.30
2019-01-18T10:18:23.608Z,38.60
2019-01-18T10:19:23.568Z,38.80
2019-01-18T10:20:23.557Z,37.20
2019-01-18T10:21:23.547Z,36.40
2019-01-18T10:22:23.543Z,40.20
2019-01-18T10:23:23.564Z,38.00
2019-01-18T10:24:23.524Z,37.80
2019-01-18T10:25:23.506Z,39.50
2019-01-18T10:26:23.502Z,38.60
2019-01-18T10:27:23.962Z,36.70
2019-01-18T10:28:23.498Z,36.00
2019-01-18T10:29:28.162Z,36.70
2019-01-18T10:30:23.498Z,33.70
2019-01-18T10:31:23.464Z,34.50
2019-01-18T10:32:23.429Z,35.50
2019-01-18T10:33:23.423Z,36.00
2019-01-18T10:34:23.438Z,36.20
2019-01-18T10:35:23.413Z,34.40
2019-01-18T10:36:23.410Z,34.80
2019-01-18T10:37:23.383Z,35.70
2019-01-18T10:38:23.365Z,35.80
2019-01-18T10:39:23.384Z,34.70
2019-01-18T10:40:23.372Z,35.10
2019-01-18T10:41:23.340Z,32.80
2019-01-18T10:42:23.363Z,30.40
2019-01-18T10:43:23.315Z,32.60
2019-01-18T10:44:23.332Z,30.80
2019-01-18T10:45:23.291Z,32.10
2019-01-18T10:46:23.297Z,36.70
2019-01-18T10:47:23.272Z,36.20
2019-01-18T10:48:23.264Z,33.90
2019-01-18T10:49:23.273Z,38.80
2019-01-18T10:50:23.242Z,33.90
2019-01-18T10:51:23.234Z,35.20
2019-01-18T10:52:23.235Z,38.80
2019-01-18T10:53:23.284Z,44.60
2019-01-18T10:54:23.193Z,45.80
2019-01-18T10:55:23.228Z,47.70
2019-01-18T10:56:23.170Z,46.20
2019-01-18T10:57:23.163Z,44.00
2019-01-18T10:58:23.172Z,42.90
2019-01-18T10:59:23.159Z,40.00
2019-01-18T11:00:23.168Z,41.50
2019-01-18T11:01:23.117Z,43.40
2019-01-18T11:02:23.111Z,44.20
2019-01-18T11:03:23.093Z,43.80
2019-01-18T11:04:23.088Z,43.60
2019-01-18T11:05:23.096Z,42.80
2019-01-18T11:06:23.096Z,42.40
2019-01-18T11:07:23.077Z,41.80
2019-01-18T11:08:23.043Z,42.90
2019-01-18T11:09:23.032Z,41.40
2019-01-18T11:10:23.018Z,41.90
2019-01-18T11:11:23.034Z,41.60
2019-01-18T11:12:22.994Z,38.10
2019-01-18T11:13:23.010Z,35.70
2019-01-18T11:14:22.986Z,36.50
2019-01-18T11:15:22.966Z,36.40
2019-01-18T11:16:22.959Z,35.70
2019-01-18T11:17:22.942Z,34.70
2019-01-18T11:18:22.970Z,36.20
2019-01-18T11:19:22.918Z,35.20
2019-01-18T11:20:22.913Z,34.40
2019-01-18T11:21:22.898Z,33.60
2019-01-18T11:22:23.790Z,31.80
2019-01-18T11:23:22.913Z,31.00
2019-01-18T11:24:22.867Z,27.00
2019-01-18T11:25:22.863Z,28.80
2019-01-18T11:26:22.846Z,29.00
2019-01-18T11:27:22.834Z,27.10
2019-01-18T11:28:22.848Z,27.30
2019-01-18T11:29:22.818Z,30.20
2019-01-18T11:30:22.797Z,28.70
2019-01-18T11:31:23.467Z,27.40
2019-01-18T11:32:22.835Z,34.70
2019-01-18T11:33:22.793Z,40.20
2019-01-18T11:34:22.783Z,41.10
2019-01-18T11:35:22.801Z,41.50
2019-01-18T11:36:22.733Z,43.40
2019-01-18T11:37:22.720Z,43.50
2019-01-18T11:38:22.744Z,40.80
2019-01-18T11:39:22.746Z,41.40
2019-01-18T11:40:22.692Z,41.60
2019-01-18T11:41:22.682Z,42.30
2019-01-18T11:42:22.676Z,40.30
2019-01-18T11:43:22.687Z,41.50
2019-01-18T11:44:22.641Z,41.60
2019-01-18T11:45:22.632Z,40.10
2019-01-18T11:46:22.620Z,39.40
2019-01-18T11:47:22.620Z,41.10
2019-01-18T11:48:22.640Z,42.00
2019-01-18T11:49:22.589Z,38.90
2019-01-18T11:50:22.578Z,39.30
2019-01-18T11:51:22.565Z,38.60
2019-01-18T11:52:22.557Z,35.80
2019-01-18T11:53:22.571Z,37.50
2019-01-18T11:54:22.532Z,37.40
2019-01-18T11:55:22.524Z,39.10
2019-01-18T11:56:22.552Z,35.70
2019-01-18T11:57:22.496Z,35.90
2019-01-18T11:58:22.496Z,37.50
2019-01-18T11:59:22.487Z,38.10
2019-01-18T12:00:22.477Z,35.90
2019-01-18T12:01:22.488Z,38.00
2019-01-18T12:02:22.443Z,37.50
2019-01-18T12:03:22.434Z,37.00
2019-01-18T12:04:22.422Z,37.20
2019-01-18T12:05:22.412Z,37.60
2019-01-18T12:06:22.424Z,37.70
2019-01-18T12:07:22.387Z,38.90
2019-01-18T12:08:22.416Z,35.90
2019-01-18T12:09:22.366Z,40.80
2019-01-18T12:10:22.355Z,38.50
2019-01-18T12:11:22.345Z,39.40
2019-01-18T12:12:22.360Z,38.50
2019-01-18T12:13:22.321Z,38.00
2019-01-18T12:14:22.316Z,38.90
2019-01-18T12:15:22.311Z,37.50
2019-01-18T12:16:22.293Z,35.80
2019-01-18T12:17:22.321Z,35.30
2019-01-18T12:18:22.314Z,34.30
2019-01-18T12:19:22.254Z,35.00
2019-01-18T12:20:22.244Z,32.90
2019-01-18T12:21:22.231Z,33.40
2019-01-18T12:22:22.221Z,34.40
2019-01-18T12:23:22.239Z,34.20
2019-01-18T12:24:22.198Z,35.60
2019-01-18T12:25:22.190Z,31.30
2019-01-18T12:26:22.182Z,29.10
2019-01-18T12:27:22.196Z,28.90
2019-01-18T12:28:22.608Z,28.60
2019-01-18T12:29:23.012Z,33.30
2019-01-18T12:30:22.264Z,33.60
2019-01-18T12:31:23.119Z,32.00
2019-01-18T12:32:22.115Z,33.60
2019-01-18T12:33:22.134Z,34.90
2019-01-18T12:34:22.103Z,32.80
2019-01-18T12:35:22.090Z,33.00
2019-01-18T12:36:22.065Z,32.50
2019-01-18T12:37:22.055Z,33.30
2019-01-18T12:38:22.070Z,30.00
2019-01-18T12:39:22.051Z,29.60
2019-01-18T12:40:22.031Z,30.90
2019-01-18T12:41:22.012Z,33.30
2019-01-18T12:42:21.997Z,32.60
2019-01-18T12:43:22.037Z,30.70
2019-01-18T12:44:21.990Z,29.50
2019-01-18T12:45:21.970Z,30.90
2019-01-18T12:46:21.956Z,29.60
2019-01-18T12:47:21.946Z,28.70
2019-01-18T12:48:21.993Z,28.30
2019-01-18T12:49:21.922Z,28.40
2019-01-18T12:50:21.919Z,27.60
2019-01-18T12:51:21.901Z,26.60
2019-01-18T12:52:21.893Z,28.40